sensor_id;sensor_type;location;lat;lon;timestamp;temperature;humidity
8643;DHT22;4359;49.358;11.256;2023-04-01T00:00:56;7.10;99.90
8643;DHT22;4359;49.358;11.256;2023-04-01T00:03:24;7.10;99.90
8643;DHT22;4359;49.358;11.256;2023-04-01T00:05:50;7.20;99.90
8643;DHT22;4359;49.358;11.256;2023-04-01T00:08:16;7.20;99.90
8643;DHT22;4359;49.358;11.256;2023-04-01T00:10:42;7.20;99.90
8643;DHT22;4359;49.358;11.256;2023-04-01T00:13:08;7.20;99.90
8643;DHT22;4359;49.358;11.256;2023-04-01T00:15:34;7.20;99.90
8643;DHT22;4359;49.358;11.256;2023-04-01T00:18:00;7.20;99.90
8643;DHT22;4359;49.358;11.256;2023-04-01T00:20:27;7.20;99.90
8643;DHT22;4359;49.358;11.256;2023-04-01T00:22:52;7.40;99.90
8643;DHT22;4359;49.358;11.256;2023-04-01T00:25:18;7.30;99.90
8643;DHT22;4359;49.358;11.256;2023-04-01T00:27:44;7.40;99.90
8643;DHT22;4359;49.358;11.256;2023-04-01T00:30:10;7.40;99.90
8643;DHT22;4359;49.358;11.256;2023-04-01T00:32:36;7.50;99.90
8643;DHT22;4359;49.358;11.256;2023-04-01T00:35:03;7.50;99.90
8643;DHT22;4359;49.358;11.256;2023-04-01T00:37:29;7.50;99.90
8643;DHT22;4359;49.358;11.256;2023-04-01T00:39:56;7.50;99.90
8643;DHT22;4359;49.358;11.256;2023-04-01T00:42:22;7.50;99.90
8643;DHT22;4359;49.358;11.256;2023-04-01T00:44:51;7.50;99.90
8643;DHT22;4359;49.358;11.256;2023-04-01T00:47:17;7.50;99.90
8643;DHT22;4359;49.358;11.256;2023-04-01T00:49:46;7.50;99.90
8643;DHT22;4359;49.358;11.256;2023-04-01T00:52:16;7.60;99.90
8643;DHT22;4359;49.358;11.256;2023-04-01T00:54:45;7.60;99.90
8643;DHT22;4359;49.358;11.256;2023-04-01T00:57:31;7.60;99.90
8643;DHT22;4359;49.358;11.256;2023-04-01T00:59:58;7.60;99.90
8643;DHT22;4359;49.358;11.256;2023-04-01T01:02:25;7.50;99.90
8643;DHT22;4359;49.358;11.256;2023-04-01T01:04:51;7.60;99.90
8643;DHT22;4359;49.358;11.256;2023-04-01T01:07:33;7.50;99.90
8643;DHT22;4359;49.358;11.256;2023-04-01T01:13:04;7.60;99.90
8643;DHT22;4359;49.358;11.256;2023-04-01T01:15:46;7.60;99.90
8643;DHT22;4359;49.358;11.256;2023-04-01T01:18:44;7.60;99.90
8643;DHT22;4359;49.358;11.256;2023-04-01T01:24:30;7.60;99.90
8643;DHT22;4359;49.358;11.256;2023-04-01T01:32:38;7.60;99.90
8643;DHT22;4359;49.358;11.256;2023-04-01T01:35:22;7.70;99.90
8643;DHT22;4359;49.358;11.256;2023-04-01T01:37:56;7.80;99.90
8643;DHT22;4359;49.358;11.256;2023-04-01T01:40:25;7.80;99.90
8643;DHT22;4359;49.358;11.256;2023-04-01T01:42:55;7.80;99.90
8643;DHT22;4359;49.358;11.256;2023-04-01T01:45:23;7.70;99.90
8643;DHT22;4359;49.358;11.256;2023-04-01T01:47:51;7.70;99.90
8643;DHT22;4359;49.358;11.256;2023-04-01T01:50:17;7.70;99.90
8643;DHT22;4359;49.358;11.256;2023-04-01T01:52:43;7.70;99.90
8643;DHT22;4359;49.358;11.256;2023-04-01T01:55:29;7.90;99.90
8643;DHT22;4359;49.358;11.256;2023-04-01T01:57:58;7.90;99.90
8643;DHT22;4359;49.358;11.256;2023-04-01T02:00:25;7.80;99.90
8643;DHT22;4359;49.358;11.256;2023-04-01T02:02:51;7.70;99.90
8643;DHT22;4359;49.358;11.256;2023-04-01T02:05:23;7.80;99.90
8643;DHT22;4359;49.358;11.256;2023-04-01T02:07:55;7.90;99.90
8643;DHT22;4359;49.358;11.256;2023-04-01T02:10:25;7.90;99.90
8643;DHT22;4359;49.358;11.256;2023-04-01T02:12:54;7.90;99.90
8643;DHT22;4359;49.358;11.256;2023-04-01T02:15:24;8.00;99.90
8643;DHT22;4359;49.358;11.256;2023-04-01T02:17:51;8.10;99.90
8643;DHT22;4359;49.358;11.256;2023-04-01T02:20:22;8.10;99.90
8643;DHT22;4359;49.358;11.256;2023-04-01T02:22:52;8.00;99.90
8643;DHT22;4359;49.358;11.256;2023-04-01T02:25:20;8.00;99.90
8643;DHT22;4359;49.358;11.256;2023-04-01T02:27:47;8.10;99.90
8643;DHT22;4359;49.358;11.256;2023-04-01T02:30:15;8.10;99.90
8643;DHT22;4359;49.358;11.256;2023-04-01T02:32:41;8.10;99.90
8643;DHT22;4359;49.358;11.256;2023-04-01T02:35:10;8.10;99.90
8643;DHT22;4359;49.358;11.256;2023-04-01T02:37:37;8.10;99.90
8643;DHT22;4359;49.358;11.256;2023-04-01T02:40:05;8.10;99.90
8643;DHT22;4359;49.358;11.256;2023-04-01T02:42:35;8.10;99.90
8643;DHT22;4359;49.358;11.256;2023-04-01T02:45:00;8.20;99.90
8643;DHT22;4359;49.358;11.256;2023-04-01T02:47:26;8.10;99.90
8643;DHT22;4359;49.358;11.256;2023-04-01T02:49:52;8.10;99.90
8643;DHT22;4359;49.358;11.256;2023-04-01T02:52:23;8.10;99.90
8643;DHT22;4359;49.358;11.256;2023-04-01T02:54:49;8.10;99.90
8643;DHT22;4359;49.358;11.256;2023-04-01T02:57:15;8.10;99.90
8643;DHT22;4359;49.358;11.256;2023-04-01T02:59:40;8.00;99.90
8643;DHT22;4359;49.358;11.256;2023-04-01T03:02:06;8.00;99.90
8643;DHT22;4359;49.358;11.256;2023-04-01T03:04:33;8.10;99.90
8643;DHT22;4359;49.358;11.256;2023-04-01T03:06:58;8.00;99.90
8643;DHT22;4359;49.358;11.256;2023-04-01T03:09:24;8.00;99.90
8643;DHT22;4359;49.358;11.256;2023-04-01T03:11:50;8.00;99.90
8643;DHT22;4359;49.358;11.256;2023-04-01T03:14:15;8.10;99.90
8643;DHT22;4359;49.358;11.256;2023-04-01T03:16:41;8.20;99.90
8643;DHT22;4359;49.358;11.256;2023-04-01T03:19:06;8.10;99.90
8643;DHT22;4359;49.358;11.256;2023-04-01T03:21:32;8.10;99.90
8643;DHT22;4359;49.358;11.256;2023-04-01T03:23:58;8.10;99.90
8643;DHT22;4359;49.358;11.256;2023-04-01T03:26:24;8.20;99.90
8643;DHT22;4359;49.358;11.256;2023-04-01T03:28:52;8.10;99.90
8643;DHT22;4359;49.358;11.256;2023-04-01T03:31:17;8.10;99.90
8643;DHT22;4359;49.358;11.256;2023-04-01T03:33:43;8.20;99.90
8643;DHT22;4359;49.358;11.256;2023-04-01T03:36:09;8.10;99.90
8643;DHT22;4359;49.358;11.256;2023-04-01T03:38:37;8.10;99.90
8643;DHT22;4359;49.358;11.256;2023-04-01T03:41:03;8.10;99.90
8643;DHT22;4359;49.358;11.256;2023-04-01T03:43:29;8.10;99.90
8643;DHT22;4359;49.358;11.256;2023-04-01T03:45:54;8.10;99.90
8643;DHT22;4359;49.358;11.256;2023-04-01T03:48:22;8.10;99.90
8643;DHT22;4359;49.358;11.256;2023-04-01T03:50:48;8.10;99.90
8643;DHT22;4359;49.358;11.256;2023-04-01T03:53:13;8.00;99.90
8643;DHT22;4359;49.358;11.256;2023-04-01T03:55:40;8.10;99.90
8643;DHT22;4359;49.358;11.256;2023-04-01T03:58:06;8.10;99.90
8643;DHT22;4359;49.358;11.256;2023-04-01T04:00:32;8.10;99.90
8643;DHT22;4359;49.358;11.256;2023-04-01T04:02:58;8.10;99.90
8643;DHT22;4359;49.358;11.256;2023-04-01T04:05:25;8.10;99.90
8643;DHT22;4359;49.358;11.256;2023-04-01T04:07:51;8.10;99.90
8643;DHT22;4359;49.358;11.256;2023-04-01T04:10:18;8.20;99.90
8643;DHT22;4359;49.358;11.256;2023-04-01T04:12:44;8.20;99.90
8643;DHT22;4359;49.358;11.256;2023-04-01T04:15:10;8.10;99.90
8643;DHT22;4359;49.358;11.256;2023-04-01T04:17:36;8.10;99.90
8643;DHT22;4359;49.358;11.256;2023-04-01T04:20:02;8.00;99.90
8643;DHT22;4359;49.358;11.256;2023-04-01T04:22:28;8.00;99.90
8643;DHT22;4359;49.358;11.256;2023-04-01T04:24:54;8.00;99.90
8643;DHT22;4359;49.358;11.256;2023-04-01T04:27:19;7.90;99.90
8643;DHT22;4359;49.358;11.256;2023-04-01T04:29:45;7.90;99.90
8643;DHT22;4359;49.358;11.256;2023-04-01T04:32:11;7.80;99.90
8643;DHT22;4359;49.358;11.256;2023-04-01T04:34:36;7.80;99.90
8643;DHT22;4359;49.358;11.256;2023-04-01T04:37:02;7.80;99.90
8643;DHT22;4359;49.358;11.256;2023-04-01T04:39:28;7.70;99.90
8643;DHT22;4359;49.358;11.256;2023-04-01T04:41:54;7.80;99.90
8643;DHT22;4359;49.358;11.256;2023-04-01T04:44:20;7.90;99.90
8643;DHT22;4359;49.358;11.256;2023-04-01T04:46:45;7.90;99.90
8643;DHT22;4359;49.358;11.256;2023-04-01T04:49:12;7.80;99.90
8643;DHT22;4359;49.358;11.256;2023-04-01T04:51:37;7.80;99.90
8643;DHT22;4359;49.358;11.256;2023-04-01T04:54:04;7.80;99.90
8643;DHT22;4359;49.358;11.256;2023-04-01T04:56:30;7.80;99.90
8643;DHT22;4359;49.358;11.256;2023-04-01T04:58:56;7.70;99.90
8643;DHT22;4359;49.358;11.256;2023-04-01T05:01:22;7.80;99.90
8643;DHT22;4359;49.358;11.256;2023-04-01T05:03:48;7.80;99.90
8643;DHT22;4359;49.358;11.256;2023-04-01T05:06:15;7.80;99.90
8643;DHT22;4359;49.358;11.256;2023-04-01T05:08:43;7.80;99.90
8643;DHT22;4359;49.358;11.256;2023-04-01T05:11:14;7.90;99.90
8643;DHT22;4359;49.358;11.256;2023-04-01T05:13:41;7.80;99.90
8643;DHT22;4359;49.358;11.256;2023-04-01T05:16:12;7.70;99.90
8643;DHT22;4359;49.358;11.256;2023-04-01T05:18:39;7.80;99.90
8643;DHT22;4359;49.358;11.256;2023-04-01T05:21:07;7.80;99.90
8643;DHT22;4359;49.358;11.256;2023-04-01T05:23:32;7.80;99.90
8643;DHT22;4359;49.358;11.256;2023-04-01T05:26:10;7.80;99.90
8643;DHT22;4359;49.358;11.256;2023-04-01T05:28:36;7.80;99.90
8643;DHT22;4359;49.358;11.256;2023-04-01T05:31:02;7.80;99.90
8643;DHT22;4359;49.358;11.256;2023-04-01T05:33:29;7.80;99.90
8643;DHT22;4359;49.358;11.256;2023-04-01T05:35:55;7.80;99.90
8643;DHT22;4359;49.358;11.256;2023-04-01T05:38:20;7.90;99.90
8643;DHT22;4359;49.358;11.256;2023-04-01T05:40:46;7.80;99.90
8643;DHT22;4359;49.358;11.256;2023-04-01T05:43:12;7.90;99.90
8643;DHT22;4359;49.358;11.256;2023-04-01T05:45:38;7.90;99.90
8643;DHT22;4359;49.358;11.256;2023-04-01T05:48:04;7.90;99.90
8643;DHT22;4359;49.358;11.256;2023-04-01T05:50:30;8.00;99.90
8643;DHT22;4359;49.358;11.256;2023-04-01T05:52:55;8.00;99.90
8643;DHT22;4359;49.358;11.256;2023-04-01T05:55:21;8.00;99.90
8643;DHT22;4359;49.358;11.256;2023-04-01T05:57:47;8.00;99.90
8643;DHT22;4359;49.358;11.256;2023-04-01T06:00:15;8.20;99.90
8643;DHT22;4359;49.358;11.256;2023-04-01T06:02:41;8.30;99.90
8643;DHT22;4359;49.358;11.256;2023-04-01T06:05:12;8.30;99.90
8643;DHT22;4359;49.358;11.256;2023-04-01T06:07:39;8.40;99.90
8643;DHT22;4359;49.358;11.256;2023-04-01T06:10:14;8.30;99.90
8643;DHT22;4359;49.358;11.256;2023-04-01T06:12:56;8.30;99.90
8643;DHT22;4359;49.358;11.256;2023-04-01T06:15:51;8.40;99.90
8643;DHT22;4359;49.358;11.256;2023-04-01T06:26:21;8.70;99.90
8643;DHT22;4359;49.358;11.256;2023-04-01T06:34:43;9.00;99.90
8643;DHT22;4359;49.358;11.256;2023-04-01T06:37:27;9.20;99.90
8643;DHT22;4359;49.358;11.256;2023-04-01T06:40:05;9.20;99.90
8643;DHT22;4359;49.358;11.256;2023-04-01T06:48:21;9.30;99.90
8643;DHT22;4359;49.358;11.256;2023-04-01T06:55:59;9.30;99.90
8643;DHT22;4359;49.358;11.256;2023-04-01T06:58:35;9.30;99.90
8643;DHT22;4359;49.358;11.256;2023-04-01T07:01:06;9.30;99.90
8643;DHT22;4359;49.358;11.256;2023-04-01T07:03:36;9.30;99.90
8643;DHT22;4359;49.358;11.256;2023-04-01T07:06:13;9.40;99.90
8643;DHT22;4359;49.358;11.256;2023-04-01T07:08:42;9.40;99.90
8643;DHT22;4359;49.358;11.256;2023-04-01T07:11:22;9.40;99.90
8643;DHT22;4359;49.358;11.256;2023-04-01T07:13:51;9.50;99.90
8643;DHT22;4359;49.358;11.256;2023-04-01T07:24:39;9.80;99.90
8643;DHT22;4359;49.358;11.256;2023-04-01T07:27:11;9.90;99.90
8643;DHT22;4359;49.358;11.256;2023-04-01T07:29:38;10.00;99.90
8643;DHT22;4359;49.358;11.256;2023-04-01T07:32:17;10.20;99.90
8643;DHT22;4359;49.358;11.256;2023-04-01T07:40:24;10.40;99.90
8643;DHT22;4359;49.358;11.256;2023-04-01T07:45:57;10.50;99.90
8643;DHT22;4359;49.358;11.256;2023-04-01T07:48:27;10.70;99.90
8643;DHT22;4359;49.358;11.256;2023-04-01T07:53:42;10.80;99.90
8643;DHT22;4359;49.358;11.256;2023-04-01T07:56:40;11.00;99.90
8643;DHT22;4359;49.358;11.256;2023-04-01T08:02:28;11.00;99.90
8643;DHT22;4359;49.358;11.256;2023-04-01T08:05:00;10.80;99.90
8643;DHT22;4359;49.358;11.256;2023-04-01T08:07:44;10.60;99.90
8643;DHT22;4359;49.358;11.256;2023-04-01T08:10:24;10.50;99.90
8643;DHT22;4359;49.358;11.256;2023-04-01T08:13:16;10.30;99.90
8643;DHT22;4359;49.358;11.256;2023-04-01T08:18:35;9.90;99.90
8643;DHT22;4359;49.358;11.256;2023-04-01T08:21:15;9.90;99.90
8643;DHT22;4359;49.358;11.256;2023-04-01T08:23:44;10.00;99.90
8643;DHT22;4359;49.358;11.256;2023-04-01T08:26:29;9.90;99.90
8643;DHT22;4359;49.358;11.256;2023-04-01T08:29:15;9.90;99.90
8643;DHT22;4359;49.358;11.256;2023-04-01T08:31:48;9.80;99.90
8643;DHT22;4359;49.358;11.256;2023-04-01T08:34:19;9.80;99.90
8643;DHT22;4359;49.358;11.256;2023-04-01T08:36:53;9.80;99.90
8643;DHT22;4359;49.358;11.256;2023-04-01T08:39:32;9.70;99.90
8643;DHT22;4359;49.358;11.256;2023-04-01T08:56:34;10.10;99.90
8643;DHT22;4359;49.358;11.256;2023-04-01T09:21:44;10.10;99.90
8643;DHT22;4359;49.358;11.256;2023-04-01T09:32:53;10.00;99.90
8643;DHT22;4359;49.358;11.256;2023-04-01T09:35:38;10.00;99.90
8643;DHT22;4359;49.358;11.256;2023-04-01T09:38:42;10.00;99.90
8643;DHT22;4359;49.358;11.256;2023-04-01T09:44:05;9.80;99.90
8643;DHT22;4359;49.358;11.256;2023-04-01T09:47:16;9.60;99.90
8643;DHT22;4359;49.358;11.256;2023-04-01T09:55:46;9.80;99.90
8643;DHT22;4359;49.358;11.256;2023-04-01T10:17:54;10.20;99.90
8643;DHT22;4359;49.358;11.256;2023-04-01T10:23:42;9.90;99.90
8643;DHT22;4359;49.358;11.256;2023-04-01T10:28:55;9.70;99.90
8643;DHT22;4359;49.358;11.256;2023-04-01T10:40:17;9.50;99.90
8643;DHT22;4359;49.358;11.256;2023-04-01T10:45:54;9.70;99.90
8643;DHT22;4359;49.358;11.256;2023-04-01T10:56:48;10.50;99.90
8643;DHT22;4359;49.358;11.256;2023-04-01T11:35:36;9.60;99.90
8643;DHT22;4359;49.358;11.256;2023-04-01T11:41:31;9.30;99.90
8643;DHT22;4359;49.358;11.256;2023-04-01T11:44:07;9.30;99.90
8643;DHT22;4359;49.358;11.256;2023-04-01T11:52:23;9.40;99.90
8643;DHT22;4359;49.358;11.256;2023-04-01T11:57:41;9.60;99.90
8643;DHT22;4359;49.358;11.256;2023-04-01T12:05:53;10.00;99.90
8643;DHT22;4359;49.358;11.256;2023-04-01T12:11:19;9.80;99.90
8643;DHT22;4359;49.358;11.256;2023-04-01T12:22:46;9.60;99.90
8643;DHT22;4359;49.358;11.256;2023-04-01T12:25:29;9.60;99.90
8643;DHT22;4359;49.358;11.256;2023-04-01T12:39:52;9.60;99.90
8643;DHT22;4359;49.358;11.256;2023-04-01T12:55:46;9.60;99.90
8643;DHT22;4359;49.358;11.256;2023-04-01T13:15:26;9.00;99.90
8643;DHT22;4359;49.358;11.256;2023-04-01T13:23:17;9.40;99.90
8643;DHT22;4359;49.358;11.256;2023-04-01T13:33:34;9.10;99.90
8643;DHT22;4359;49.358;11.256;2023-04-01T13:36:16;9.20;99.90
8643;DHT22;4359;49.358;11.256;2023-04-01T13:38:54;9.20;99.90
8643;DHT22;4359;49.358;11.256;2023-04-01T13:55:37;9.40;99.90
8643;DHT22;4359;49.358;11.256;2023-04-01T14:08:46;9.50;99.90
8643;DHT22;4359;49.358;11.256;2023-04-01T14:17:09;9.50;99.90
8643;DHT22;4359;49.358;11.256;2023-04-01T14:27:47;9.40;99.90
8643;DHT22;4359;49.358;11.256;2023-04-01T14:30:48;9.40;99.90
8643;DHT22;4359;49.358;11.256;2023-04-01T14:33:35;9.40;99.90
8643;DHT22;4359;49.358;11.256;2023-04-01T14:42:00;9.30;99.90
8643;DHT22;4359;49.358;11.256;2023-04-01T14:48:03;9.20;99.90
8643;DHT22;4359;49.358;11.256;2023-04-01T14:50:45;9.10;99.90
8643;DHT22;4359;49.358;11.256;2023-04-01T14:53:29;9.10;99.90
8643;DHT22;4359;49.358;11.256;2023-04-01T14:56:01;9.10;99.90
8643;DHT22;4359;49.358;11.256;2023-04-01T14:59:01;9.10;99.90
8643;DHT22;4359;49.358;11.256;2023-04-01T15:01:37;9.10;99.90
8643;DHT22;4359;49.358;11.256;2023-04-01T15:10:43;9.00;99.90
8643;DHT22;4359;49.358;11.256;2023-04-01T15:28:05;9.00;99.90
8643;DHT22;4359;49.358;11.256;2023-04-01T15:36:07;9.00;99.90
8643;DHT22;4359;49.358;11.256;2023-04-01T15:38:53;8.90;99.90
8643;DHT22;4359;49.358;11.256;2023-04-01T15:47:31;8.80;99.90
8643;DHT22;4359;49.358;11.256;2023-04-01T15:53:18;8.80;99.90
8643;DHT22;4359;49.358;11.256;2023-04-01T15:56:43;8.80;99.90
8643;DHT22;4359;49.358;11.256;2023-04-01T16:16:04;8.70;99.90
8643;DHT22;4359;49.358;11.256;2023-04-01T16:24:33;8.70;99.90
8643;DHT22;4359;49.358;11.256;2023-04-01T16:27:04;8.60;99.90
8643;DHT22;4359;49.358;11.256;2023-04-01T16:32:34;8.60;99.90
8643;DHT22;4359;49.358;11.256;2023-04-01T16:35:17;8.70;99.90
8643;DHT22;4359;49.358;11.256;2023-04-01T16:37:50;8.70;99.90
8643;DHT22;4359;49.358;11.256;2023-04-01T16:51:16;8.60;99.90
8643;DHT22;4359;49.358;11.256;2023-04-01T16:53:47;8.70;99.90
8643;DHT22;4359;49.358;11.256;2023-04-01T16:56:20;8.70;99.90
8643;DHT22;4359;49.358;11.256;2023-04-01T16:59:04;8.70;99.90
8643;DHT22;4359;49.358;11.256;2023-04-01T17:02:00;8.70;99.90
8643;DHT22;4359;49.358;11.256;2023-04-01T17:13:09;8.50;99.90
8643;DHT22;4359;49.358;11.256;2023-04-01T17:18:37;8.40;99.90
8643;DHT22;4359;49.358;11.256;2023-04-01T17:21:09;8.50;99.90
8643;DHT22;4359;49.358;11.256;2023-04-01T17:23:52;8.40;99.90
8643;DHT22;4359;49.358;11.256;2023-04-01T17:26:46;8.40;99.90
8643;DHT22;4359;49.358;11.256;2023-04-01T17:29:26;8.40;99.90
8643;DHT22;4359;49.358;11.256;2023-04-01T17:35:39;8.40;99.90
8643;DHT22;4359;49.358;11.256;2023-04-01T17:45:55;8.40;99.90
8643;DHT22;4359;49.358;11.256;2023-04-01T17:53:58;8.40;99.90
8643;DHT22;4359;49.358;11.256;2023-04-01T18:02:13;8.30;99.90
8643;DHT22;4359;49.358;11.256;2023-04-01T18:18:11;8.50;99.90
8643;DHT22;4359;49.358;11.256;2023-04-01T18:23:45;8.40;99.90
8643;DHT22;4359;49.358;11.256;2023-04-01T18:26:23;8.40;99.90
8643;DHT22;4359;49.358;11.256;2023-04-01T18:28:59;8.40;99.90
8643;DHT22;4359;49.358;11.256;2023-04-01T18:31:42;8.40;99.90
8643;DHT22;4359;49.358;11.256;2023-04-01T18:34:42;8.30;99.90
8643;DHT22;4359;49.358;11.256;2023-04-01T18:37:39;8.40;99.90
8643;DHT22;4359;49.358;11.256;2023-04-01T18:43:02;8.50;99.90
8643;DHT22;4359;49.358;11.256;2023-04-01T18:45:35;8.40;99.90
8643;DHT22;4359;49.358;11.256;2023-04-01T18:50:58;8.40;99.90
8643;DHT22;4359;49.358;11.256;2023-04-01T18:56:06;8.40;99.90
8643;DHT22;4359;49.358;11.256;2023-04-01T18:58:52;8.40;99.90
8643;DHT22;4359;49.358;11.256;2023-04-01T19:01:37;8.30;99.90
8643;DHT22;4359;49.358;11.256;2023-04-01T19:04:36;8.40;99.90
8643;DHT22;4359;49.358;11.256;2023-04-01T19:13:20;8.40;99.90
8643;DHT22;4359;49.358;11.256;2023-04-01T19:18:47;8.30;99.90
8643;DHT22;4359;49.358;11.256;2023-04-01T19:21:33;8.40;99.90
8643;DHT22;4359;49.358;11.256;2023-04-01T19:38:24;8.40;99.90
8643;DHT22;4359;49.358;11.256;2023-04-01T19:43:58;8.40;99.90
8643;DHT22;4359;49.358;11.256;2023-04-01T19:49:12;8.30;99.90
8643;DHT22;4359;49.358;11.256;2023-04-01T19:59:38;8.40;99.90
8643;DHT22;4359;49.358;11.256;2023-04-01T20:10:10;8.30;99.90
8643;DHT22;4359;49.358;11.256;2023-04-01T20:13:06;8.40;99.90
8643;DHT22;4359;49.358;11.256;2023-04-01T20:15:38;8.30;99.90
8643;DHT22;4359;49.358;11.256;2023-04-01T20:18:20;8.40;99.90
8643;DHT22;4359;49.358;11.256;2023-04-01T20:21:06;8.20;99.90
8643;DHT22;4359;49.358;11.256;2023-04-01T20:24:04;8.20;99.90
8643;DHT22;4359;49.358;11.256;2023-04-01T20:26:38;8.20;99.90
8643;DHT22;4359;49.358;11.256;2023-04-01T20:59:09;8.00;99.90
8643;DHT22;4359;49.358;11.256;2023-04-01T21:01:58;8.20;99.90
8643;DHT22;4359;49.358;11.256;2023-04-01T21:07:16;8.20;99.90
8643;DHT22;4359;49.358;11.256;2023-04-01T21:10:06;8.20;99.90
8643;DHT22;4359;49.358;11.256;2023-04-01T21:18:00;8.10;99.90
8643;DHT22;4359;49.358;11.256;2023-04-01T21:20:52;8.10;99.90
8643;DHT22;4359;49.358;11.256;2023-04-01T21:37:45;8.10;99.90
8643;DHT22;4359;49.358;11.256;2023-04-01T21:40:48;8.10;99.90
8643;DHT22;4359;49.358;11.256;2023-04-01T21:43:37;8.10;99.90
8643;DHT22;4359;49.358;11.256;2023-04-01T21:55:03;8.10;99.90
8643;DHT22;4359;49.358;11.256;2023-04-01T22:01:10;8.20;99.90
8643;DHT22;4359;49.358;11.256;2023-04-01T22:09:13;8.10;99.90
8643;DHT22;4359;49.358;11.256;2023-04-01T22:14:57;8.10;99.90
8643;DHT22;4359;49.358;11.256;2023-04-01T22:20:36;8.20;99.90
8643;DHT22;4359;49.358;11.256;2023-04-01T22:23:24;8.10;99.90
8643;DHT22;4359;49.358;11.256;2023-04-01T22:26:16;8.10;99.90
8643;DHT22;4359;49.358;11.256;2023-04-01T22:28:50;8.10;99.90
8643;DHT22;4359;49.358;11.256;2023-04-01T22:31:31;8.10;99.90
8643;DHT22;4359;49.358;11.256;2023-04-01T22:37:38;8.10;99.90
8643;DHT22;4359;49.358;11.256;2023-04-01T22:40:31;8.10;99.90
8643;DHT22;4359;49.358;11.256;2023-04-01T22:43:10;8.10;99.90
8643;DHT22;4359;49.358;11.256;2023-04-01T22:56:11;8.00;99.90
8643;DHT22;4359;49.358;11.256;2023-04-01T22:58:55;8.00;99.90
8643;DHT22;4359;49.358;11.256;2023-04-01T23:01:27;7.90;99.90
8643;DHT22;4359;49.358;11.256;2023-04-01T23:03:56;7.80;99.90
8643;DHT22;4359;49.358;11.256;2023-04-01T23:06:34;7.80;99.90
8643;DHT22;4359;49.358;11.256;2023-04-01T23:11:49;7.90;99.90
8643;DHT22;4359;49.358;11.256;2023-04-01T23:22:21;7.80;99.90
8643;DHT22;4359;49.358;11.256;2023-04-01T23:24:50;7.80;99.90
8643;DHT22;4359;49.358;11.256;2023-04-01T23:27:35;7.80;99.90
8643;DHT22;4359;49.358;11.256;2023-04-01T23:30:03;7.90;99.90
8643;DHT22;4359;49.358;11.256;2023-04-01T23:32:29;7.80;99.90
8643;DHT22;4359;49.358;11.256;2023-04-01T23:34:56;8.00;99.90
8643;DHT22;4359;49.358;11.256;2023-04-01T23:37:24;7.90;99.90
8643;DHT22;4359;49.358;11.256;2023-04-01T23:42:34;7.90;99.90
8643;DHT22;4359;49.358;11.256;2023-04-01T23:45:11;7.90;99.90
8643;DHT22;4359;49.358;11.256;2023-04-01T23:47:39;7.90;99.90
8643;DHT22;4359;49.358;11.256;2023-04-01T23:50:10;7.80;99.90
8643;DHT22;4359;49.358;11.256;2023-04-01T23:52:42;7.80;99.90
8643;DHT22;4359;49.358;11.256;2023-04-01T23:57:36;7.70;99.90
